createdAt,value
2019-03-30T00:01:04.285Z,99.00
2019-03-30T00:05:22.858Z,99.00
2019-03-30T00:09:39.341Z,98.90
2019-03-30T00:13:55.929Z,98.80
2019-03-30T00:18:12.380Z,98.90
2019-03-30T00:22:29.178Z,99.00
2019-03-30T00:26:46.012Z,99.20
2019-03-30T00:31:02.563Z,99.20
2019-03-30T00:35:19.075Z,99.20
2019-03-30T00:39:35.578Z,99.30
2019-03-30T00:43:52.395Z,99.20
2019-03-30T00:48:09.229Z,99.20
2019-03-30T00:52:25.911Z,99.20
2019-03-30T00:56:42.749Z,99.30
2019-03-30T01:00:59.673Z,99.20
2019-03-30T01:05:16.232Z,99.20
2019-03-30T01:09:32.831Z,99.20
2019-03-30T01:13:49.460Z,99.40
2019-03-30T01:18:05.948Z,99.40
2019-03-30T01:22:22.484Z,99.40
2019-03-30T01:26:39.361Z,99.30
2019-03-30T01:30:56.203Z,99.30
2019-03-30T01:35:12.881Z,99.30
2019-03-30T01:39:29.470Z,99.40
2019-03-30T01:43:46.389Z,99.50
2019-03-30T01:48:03.206Z,99.50
2019-03-30T01:52:19.743Z,99.50
2019-03-30T01:56:36.526Z,99.70
2019-03-30T02:00:53.094Z,99.60
2019-03-30T02:05:09.909Z,99.60
2019-03-30T02:09:26.415Z,99.70
2019-03-30T02:13:43.049Z,99.60
2019-03-30T02:17:59.629Z,99.50
2019-03-30T02:22:16.686Z,99.70
2019-03-30T02:26:33.570Z,99.80
2019-03-30T02:30:50.167Z,99.50
2019-03-30T02:35:08.139Z,99.70
2019-03-30T02:39:27.410Z,99.60
2019-03-30T02:43:44.269Z,99.60
2019-03-30T02:48:01.285Z,99.60
2019-03-30T02:52:18.238Z,99.60
2019-03-30T02:56:35.112Z,99.60
2019-03-30T03:00:51.804Z,99.60
2019-03-30T03:05:09.009Z,99.50
2019-03-30T03:09:25.506Z,99.40
2019-03-30T03:13:42.044Z,99.70
2019-03-30T03:17:58.558Z,99.40
2019-03-30T03:22:15.065Z,99.40
2019-03-30T03:26:32.100Z,99.50
2019-03-30T03:30:48.620Z,99.30
2019-03-30T03:35:05.712Z,99.20
2019-03-30T03:39:22.137Z,99.20
2019-03-30T03:43:38.680Z,99.40
2019-03-30T03:47:55.162Z,99.20
2019-03-30T03:52:11.803Z,99.20
2019-03-30T03:56:29.221Z,99.20
2019-03-30T04:00:45.931Z,99.20
2019-03-30T04:05:06.156Z,99.30
2019-03-30T04:09:23.178Z,99.30
2019-03-30T04:13:42.264Z,99.20
2019-03-30T04:17:59.021Z,99.40
2019-03-30T04:22:15.494Z,99.30
2019-03-30T04:26:32.336Z,99.30
2019-03-30T04:30:48.836Z,99.10
2019-03-30T04:35:05.726Z,99.30
2019-03-30T04:39:22.167Z,99.30
2019-03-30T04:43:39.176Z,99.20
2019-03-30T04:47:55.957Z,99.50
2019-03-30T04:52:12.435Z,99.50
2019-03-30T04:56:29.303Z,99.30
2019-03-30T05:00:45.760Z,99.20
2019-03-30T05:05:03.292Z,99.30
2019-03-30T05:09:19.830Z,99.30
2019-03-30T05:13:36.657Z,99.30
2019-03-30T05:17:53.166Z,99.20
2019-03-30T05:22:13.531Z,99.20
2019-03-30T05:26:28.151Z,99.30
2019-03-30T05:30:44.663Z,99.20
2019-03-30T05:35:01.417Z,99.20
2019-03-30T05:39:18.119Z,99.30
2019-03-30T05:43:34.618Z,99.40
2019-03-30T05:47:51.135Z,99.50
2019-03-30T05:52:07.648Z,99.40
2019-03-30T05:56:24.265Z,99.40
2019-03-30T06:00:40.893Z,99.40
2019-03-30T06:04:58.698Z,99.40
2019-03-30T06:09:15.461Z,99.50
2019-03-30T06:13:31.953Z,99.40
2019-03-30T06:17:48.791Z,99.50
2019-03-30T06:22:05.397Z,99.70
2019-03-30T06:26:21.916Z,99.90
2019-03-30T06:30:38.435Z,99.80
2019-03-30T06:34:54.932Z,99.90
2019-03-30T06:39:11.408Z,99.90
2019-03-30T06:43:28.399Z,99.90
2019-03-30T06:47:45.512Z,99.90
2019-03-30T06:52:02.117Z,99.90
2019-03-30T06:56:18.681Z,99.90
2019-03-30T07:00:35.461Z,99.90
2019-03-30T07:04:52.003Z,99.90
2019-03-30T07:09:08.825Z,99.90
2019-03-30T07:13:27.325Z,99.90
2019-03-30T07:17:47.529Z,99.90
2019-03-30T07:22:04.004Z,99.90
2019-03-30T07:26:20.596Z,99.90
2019-03-30T07:30:37.142Z,99.90
2019-03-30T07:34:53.903Z,99.90
2019-03-30T07:39:10.755Z,99.90
2019-03-30T07:43:27.296Z,99.90
2019-03-30T07:47:43.816Z,99.90
2019-03-30T07:52:00.315Z,98.20
2019-03-30T07:56:16.841Z,96.10
2019-03-30T08:00:33.362Z,94.70
2019-03-30T08:04:50.146Z,93.00
2019-03-30T08:09:06.701Z,92.20
2019-03-30T08:13:23.212Z,91.30
2019-03-30T08:17:40.042Z,87.50
2019-03-30T08:21:56.552Z,82.70
2019-03-30T08:26:13.043Z,81.30
2019-03-30T08:30:29.822Z,76.90
2019-03-30T08:34:46.303Z,75.70
2019-03-30T08:39:05.325Z,70.40
2019-03-30T08:43:21.806Z,68.00
2019-03-30T08:47:38.498Z,69.30
2019-03-30T08:51:55.133Z,69.50
2019-03-30T08:56:11.951Z,68.20
2019-03-30T09:00:39.661Z,65.50
2019-03-30T09:04:56.454Z,64.20
2019-03-30T09:09:13.006Z,63.30
2019-03-30T09:13:29.620Z,61.10
2019-03-30T09:17:46.106Z,61.10
2019-03-30T09:22:02.860Z,59.70
2019-03-30T09:26:19.420Z,58.80
2019-03-30T09:30:36.043Z,58.10
2019-03-30T09:34:52.854Z,57.00
2019-03-30T09:39:09.477Z,57.10
2019-03-30T09:43:26.104Z,57.10
2019-03-30T09:47:43.327Z,56.80
2019-03-30T09:51:59.879Z,54.70
2019-03-30T09:56:16.403Z,54.00
2019-03-30T10:00:33.079Z,54.10
2019-03-30T10:04:49.729Z,50.90
2019-03-30T10:09:06.538Z,51.40
2019-03-30T10:13:23.067Z,49.80
2019-03-30T10:17:39.685Z,50.20
2019-03-30T10:21:56.208Z,48.00
2019-03-30T10:26:12.684Z,46.90
2019-03-30T10:30:29.534Z,48.30
2019-03-30T10:34:46.943Z,44.60
2019-03-30T10:39:06.564Z,45.30
2019-03-30T10:43:23.488Z,44.50
2019-03-30T10:47:40.003Z,44.80
2019-03-30T10:51:56.828Z,44.60
2019-03-30T10:56:13.517Z,44.30
2019-03-30T11:00:39.862Z,44.50
2019-03-30T11:04:56.404Z,44.50
2019-03-30T11:09:13.229Z,44.90
2019-03-30T11:13:29.746Z,43.90
2019-03-30T11:17:46.652Z,43.40
2019-03-30T11:22:03.623Z,41.80
2019-03-30T11:26:20.126Z,42.60
2019-03-30T11:30:36.643Z,42.50
2019-03-30T11:34:53.152Z,42.40
2019-03-30T11:39:30.011Z,42.50
2019-03-30T11:43:46.556Z,42.10
2019-03-30T11:48:03.631Z,39.00
2019-03-30T11:52:20.216Z,41.20
2019-03-30T11:56:36.813Z,39.50
2019-03-30T12:00:53.330Z,40.10
2019-03-30T12:05:12.614Z,41.60
2019-03-30T12:09:31.057Z,39.90
2019-03-30T12:13:47.592Z,41.30
2019-03-30T12:18:04.128Z,40.50
2019-03-30T12:22:20.625Z,39.10
2019-03-30T12:26:37.140Z,37.30
2019-03-30T12:30:53.648Z,39.40
2019-03-30T12:35:10.281Z,39.70
2019-03-30T12:39:26.869Z,38.20
2019-03-30T12:43:43.615Z,36.30
2019-03-30T12:48:00.101Z,36.30
2019-03-30T12:52:16.846Z,33.10
2019-03-30T12:56:33.707Z,31.60
2019-03-30T13:00:50.570Z,28.20
2019-03-30T13:05:07.693Z,27.80
2019-03-30T13:09:24.447Z,29.40
2019-03-30T13:13:40.953Z,29.60
2019-03-30T13:17:57.751Z,29.30
2019-03-30T13:22:14.398Z,29.50
2019-03-30T13:26:31.186Z,27.90
2019-03-30T13:31:07.883Z,27.70
2019-03-30T13:35:24.420Z,28.00
2019-03-30T13:39:40.941Z,29.80
2019-03-30T13:43:57.427Z,28.90
2019-03-30T13:48:13.979Z,28.50
2019-03-30T13:52:30.476Z,27.60
2019-03-30T13:56:47.614Z,26.60
2019-03-30T14:01:04.248Z,27.20
2019-03-30T14:05:20.758Z,29.50
2019-03-30T14:09:37.305Z,30.20
2019-03-30T14:13:56.556Z,30.00
2019-03-30T14:18:13.793Z,28.60
2019-03-30T14:22:30.328Z,28.10
2019-03-30T14:26:46.827Z,29.90
2019-03-30T14:31:03.461Z,32.50
2019-03-30T14:35:20.561Z,34.70
2019-03-30T14:39:38.385Z,36.90
2019-03-30T14:43:55.237Z,38.10
2019-03-30T14:48:11.928Z,37.20
2019-03-30T14:52:28.777Z,38.00
2019-03-30T14:56:46.296Z,38.20
2019-03-30T15:01:03.450Z,37.40
2019-03-30T15:05:19.937Z,38.70
2019-03-30T15:09:36.776Z,38.60
2019-03-30T15:13:53.304Z,38.90
2019-03-30T15:18:10.093Z,38.20
2019-03-30T15:22:26.643Z,38.20
2019-03-30T15:26:43.450Z,37.80
2019-03-30T15:30:59.972Z,38.40
2019-03-30T15:35:16.488Z,37.80
2019-03-30T15:39:33.278Z,38.10
2019-03-30T15:43:51.982Z,38.60
2019-03-30T15:48:08.574Z,39.50
2019-03-30T15:52:25.090Z,38.80
2019-03-30T15:56:43.809Z,38.70
2019-03-30T16:01:00.292Z,38.50
2019-03-30T16:05:17.324Z,38.80
2019-03-30T16:09:34.241Z,39.90
2019-03-30T16:13:50.855Z,40.70
2019-03-30T16:18:07.369Z,42.10
2019-03-30T16:22:24.011Z,41.60
2019-03-30T16:26:42.359Z,42.80
2019-03-30T16:30:58.987Z,43.20
2019-03-30T16:35:15.589Z,42.70
2019-03-30T16:39:34.879Z,42.90
2019-03-30T16:43:50.775Z,43.70
2019-03-30T16:48:07.276Z,44.20
2019-03-30T16:52:23.816Z,44.60
2019-03-30T16:56:40.529Z,44.80
2019-03-30T17:00:57.216Z,45.70
2019-03-30T17:05:13.996Z,48.50
2019-03-30T17:09:30.818Z,50.50
2019-03-30T17:13:47.427Z,54.20
2019-03-30T17:18:04.375Z,56.10
2019-03-30T17:22:21.129Z,58.00
2019-03-30T17:26:38.501Z,60.00
2019-03-30T17:30:55.299Z,61.40
2019-03-30T17:35:12.150Z,63.30
2019-03-30T17:39:28.938Z,65.20
2019-03-30T17:43:45.752Z,67.20
2019-03-30T17:48:02.395Z,69.30
2019-03-30T17:52:19.087Z,71.40
2019-03-30T17:56:35.628Z,73.00
2019-03-30T18:00:52.563Z,74.40
2019-03-30T18:05:15.070Z,76.10
2019-03-30T18:09:32.251Z,77.60
2019-03-30T18:13:48.750Z,77.50
2019-03-30T18:18:05.390Z,79.70
2019-03-30T18:22:22.243Z,80.30
2019-03-30T18:26:39.128Z,80.20
2019-03-30T18:30:55.631Z,80.80
2019-03-30T18:35:12.483Z,81.20
2019-03-30T18:39:29.177Z,82.70
2019-03-30T18:43:46.364Z,83.80
2019-03-30T18:48:15.750Z,84.30
2019-03-30T18:52:32.951Z,84.50
2019-03-30T18:56:49.497Z,84.40
2019-03-30T19:01:06.041Z,85.90
2019-03-30T19:05:22.738Z,85.50
2019-03-30T19:09:39.500Z,86.00
2019-03-30T19:13:55.964Z,87.10
2019-03-30T19:18:12.682Z,88.70
2019-03-30T19:22:29.215Z,88.20
2019-03-30T19:26:45.928Z,88.60
2019-03-30T19:31:02.651Z,87.90
2019-03-30T19:35:19.434Z,88.10
2019-03-30T19:39:36.104Z,87.70
2019-03-30T19:43:52.690Z,87.20
2019-03-30T19:48:09.220Z,87.70
2019-03-30T19:52:39.284Z,88.10
2019-03-30T19:56:44.474Z,88.90
2019-03-30T20:01:01.006Z,89.10
2019-03-30T20:05:17.643Z,89.20
2019-03-30T20:09:34.471Z,89.90
2019-03-30T20:13:50.978Z,89.70
2019-03-30T20:18:07.517Z,88.50
2019-03-30T20:22:24.419Z,88.10
2019-03-30T20:26:41.026Z,87.30
2019-03-30T20:30:57.951Z,87.00
2019-03-30T20:35:14.591Z,87.30
2019-03-30T20:39:31.393Z,87.50
2019-03-30T20:43:47.921Z,88.30
2019-03-30T20:48:04.731Z,88.40
2019-03-30T20:52:21.280Z,89.80
2019-03-30T20:56:37.776Z,90.20
2019-03-30T21:00:54.292Z,90.00
2019-03-30T21:05:12.899Z,90.30
2019-03-30T21:09:29.466Z,90.30
2019-03-30T21:13:45.981Z,90.40
2019-03-30T21:18:02.602Z,90.70
2019-03-30T21:22:19.111Z,90.80
2019-03-30T21:26:35.908Z,91.00
2019-03-30T21:30:52.764Z,91.20
2019-03-30T21:35:09.765Z,91.40
2019-03-30T21:39:27.385Z,91.60
2019-03-30T21:43:43.938Z,91.80
2019-03-30T21:48:00.617Z,91.90
2019-03-30T21:52:17.169Z,92.10
2019-03-30T21:56:33.992Z,92.30
2019-03-30T22:00:50.581Z,92.20
2019-03-30T22:05:08.157Z,92.40
2019-03-30T22:09:24.951Z,92.40
2019-03-30T22:13:41.487Z,92.40
2019-03-30T22:17:58.308Z,92.50
2019-03-30T22:22:14.818Z,92.70
2019-03-30T22:26:31.327Z,92.70
2019-03-30T22:30:47.850Z,92.90
2019-03-30T22:35:04.599Z,92.90
2019-03-30T22:39:21.092Z,93.10
2019-03-30T22:43:37.591Z,93.10
2019-03-30T22:47:54.119Z,93.30
2019-03-30T22:52:10.725Z,93.30
2019-03-30T22:56:27.564Z,93.40
2019-03-30T23:00:46.340Z,93.50
2019-03-30T23:05:04.635Z,93.50
2019-03-30T23:09:21.124Z,93.60
2019-03-30T23:13:37.829Z,93.70
2019-03-30T23:17:54.450Z,93.80
2019-03-30T23:22:10.936Z,93.80
2019-03-30T23:26:27.481Z,93.80
2019-03-30T23:30:54.098Z,93.80
2019-03-30T23:35:04.438Z,94.10
2019-03-30T23:39:20.959Z,94.40
2019-03-30T23:43:37.533Z,94.40
2019-03-30T23:47:54.122Z,94.40
2019-03-30T23:52:10.667Z,95.10
2019-03-30T23:56:27.255Z,94.50
